Time;durP1;ratioP1;P1;durP2;ratioP2;P2;SDS_P1;SDS_P2;PMS_P1;PMS_P2;Temp;Humidity;BMP_temperature;BMP_pressure;BME280_temperature;BME280_humidity;BME280_pressure;Samples;Min_cycle;Max_cycle;Signal;HPM_P1;HPM_P2
2022/07/12 00:01:02;;;;;;;0.30;0.30;;;14.70;1.00;;;;;;5052689;28;20229;-75
2022/07/12 00:03:28;;;;;;;0.30;0.30;;;14.70;1.00;;;;;;5052982;28;20606;-75
2022/07/12 00:05:54;;;;;;;0.30;0.30;;;14.60;1.00;;;;;;5052651;28;20704;-75
2022/07/12 00:08:20;;;;;;;0.40;0.40;;;14.60;1.00;;;;;;5052974;28;20222;-75
2022/07/12 00:10:45;;;;;;;0.30;0.30;;;14.60;1.00;;;;;;5052402;28;20203;-75
2022/07/12 00:13:11;;;;;;;0.30;0.30;;;14.50;1.00;;;;;;5052816;28;20197;-74
2022/07/12 00:15:37;;;;;;;0.30;0.30;;;14.50;10.80;;;;;;5052949;28;20175;-74
2022/07/12 00:18:02;;;;;;;0.40;0.40;;;14.30;1.00;;;;;;5052166;28;20187;-75
2022/07/12 00:20:28;;;;;;;0.30;0.30;;;14.30;1.00;;;;;;5051787;28;20194;-75
2022/07/12 00:22:54;;;;;;;0.37;0.37;;;14.30;1.00;;;;;;5052415;28;20687;-74
2022/07/12 00:25:20;;;;;;;0.30;0.30;;;14.20;2.30;;;;;;5052525;28;20175;-74
2022/07/12 00:27:45;;;;;;;0.37;0.37;;;14.10;9.00;;;;;;5052244;28;20199;-75
2022/07/12 00:30:12;;;;;;;0.40;0.40;;;14.10;24.50;;;;;;5052142;28;20170;-75
2022/07/12 00:32:37;;;;;;;0.30;0.30;;;14.00;41.80;;;;;;5052307;28;20598;-75
2022/07/12 00:35:04;;;;;;;0.40;0.40;;;14.00;32.40;;;;;;5052325;28;20229;-75
2022/07/12 00:37:29;;;;;;;0.40;0.40;;;13.90;91.00;;;;;;5052306;28;20563;-74
2022/07/12 00:39:55;;;;;;;0.30;0.30;;;13.90;99.90;;;;;;5051798;28;20175;-74
2022/07/12 00:42:20;;;;;;;0.30;0.30;;;13.90;99.90;;;;;;5052169;28;20199;-75
2022/07/12 00:44:46;;;;;;;0.40;0.40;;;13.80;99.90;;;;;;5037322;28;20542;-75
2022/07/12 00:47:37;;;;;;;0.40;0.40;;;13.80;99.90;;;;;;5040394;28;20210;-74
2022/07/12 00:50:11;;;;;;;0.43;0.43;;;13.80;99.90;;;;;;5033182;28;20168;-76
2022/07/12 00:52:37;;;;;;;0.37;0.37;;;13.80;94.00;;;;;;5031608;28;20201;-76
2022/07/12 00:55:05;;;;;;;0.30;0.30;;;13.70;97.10;;;;;;5032369;28;20258;-75
2022/07/12 00:57:32;;;;;;;0.50;0.50;;;13.70;99.90;;;;;;5032013;28;20180;-75
2022/07/12 00:59:58;;;;;;;0.40;0.40;;;13.70;99.90;;;;;;5032268;28;20179;-75
2022/07/12 01:02:24;;;;;;;0.30;0.30;;;13.80;99.90;;;;;;5031719;28;20191;-75
2022/07/12 01:04:51;;;;;;;0.30;0.30;;;13.70;99.90;;;;;;5031895;28;20196;-75
2022/07/12 01:07:17;;;;;;;0.40;0.40;;;13.80;99.90;;;;;;5031626;28;20203;-74
2022/07/12 01:09:43;;;;;;;0.37;0.37;;;13.80;99.90;;;;;;5031568;28;20205;-75
2022/07/12 01:12:10;;;;;;;0.30;0.30;;;13.80;99.90;;;;;;5031953;28;20196;-74
2022/07/12 01:14:36;;;;;;;0.30;0.30;;;13.80;99.90;;;;;;5031855;28;20819;-74
2022/07/12 01:17:02;;;;;;;0.30;0.30;;;13.80;99.90;;;;;;5031764;28;20692;-74
2022/07/12 01:19:28;;;;;;;0.40;0.40;;;13.80;99.90;;;;;;5031340;28;20539;-74
2022/07/12 01:21:57;;;;;;;0.40;0.40;;;13.70;99.90;;;;;;5031672;28;20207;-74
2022/07/12 01:24:23;;;;;;;0.40;0.40;;;13.80;99.90;;;;;;5031836;28;20182;-74
2022/07/12 01:26:50;;;;;;;0.40;0.40;;;13.70;90.10;;;;;;5031737;28;20207;-73
2022/07/12 01:29:16;;;;;;;0.30;0.30;;;13.70;92.70;;;;;;5031432;28;20194;-74
2022/07/12 01:31:42;;;;;;;0.30;0.30;;;13.70;99.90;;;;;;5031117;28;20641;-74
2022/07/12 01:34:08;;;;;;;0.50;0.50;;;13.70;99.90;;;;;;5031447;28;20555;-75
2022/07/12 01:36:34;;;;;;;0.40;0.40;;;13.70;99.90;;;;;;5031405;28;20176;-75
2022/07/12 01:39:00;;;;;;;0.40;0.40;;;13.60;99.90;;;;;;5031091;28;20280;-75
2022/07/12 01:41:26;;;;;;;0.37;0.37;;;13.60;99.90;;;;;;5031479;28;20271;-75
2022/07/12 01:43:52;;;;;;;0.30;0.30;;;13.60;99.90;;;;;;5031501;28;20187;-75
2022/07/12 01:46:18;;;;;;;0.30;0.30;;;13.50;99.90;;;;;;5031251;28;20203;-75
2022/07/12 01:48:44;;;;;;;0.50;0.50;;;13.50;97.60;;;;;;5031381;28;20175;-75
2022/07/12 01:51:09;;;;;;;0.37;0.37;;;13.30;99.10;;;;;;5030883;28;20180;-75
2022/07/12 01:53:36;;;;;;;0.40;0.40;;;13.20;99.90;;;;;;5031368;28;20668;-75
2022/07/12 01:56:03;;;;;;;0.40;0.40;;;13.10;99.90;;;;;;5031473;28;20175;-75
2022/07/12 01:58:29;;;;;;;0.40;0.40;;;13.00;99.90;;;;;;5031483;28;20191;-75
2022/07/12 02:00:54;;;;;;;0.50;0.50;;;13.10;99.90;;;;;;5030890;28;20172;-75
2022/07/12 02:03:20;;;;;;;0.40;0.40;;;13.10;99.90;;;;;;5031151;28;20203;-75
2022/07/12 02:05:46;;;;;;;0.43;0.43;;;13.00;99.90;;;;;;5031091;28;20199;-76
2022/07/12 02:08:12;;;;;;;0.50;0.50;;;12.90;99.90;;;;;;5031195;28;20277;-76
2022/07/12 02:10:39;;;;;;;0.40;0.40;;;12.90;99.90;;;;;;5030863;28;20210;-75
2022/07/12 02:13:05;;;;;;;0.40;0.40;;;12.90;99.90;;;;;;5029781;28;20350;-75
2022/07/12 02:15:31;;;;;;;0.40;0.40;;;12.90;99.90;;;;;;5031134;28;20176;-76
2022/07/12 02:17:57;;;;;;;0.37;0.37;;;12.90;99.90;;;;;;5031185;28;20180;-75
2022/07/12 02:20:22;;;;;;;0.40;0.40;;;12.90;99.90;;;;;;5030524;28;20168;-76
2022/07/12 02:22:48;;;;;;;0.40;0.40;;;12.90;99.90;;;;;;5031153;28;20211;-76
2022/07/12 02:25:13;;;;;;;0.40;0.40;;;12.90;99.90;;;;;;5031112;28;20230;-76
2022/07/12 02:27:43;;;;;;;0.47;0.47;;;12.90;99.90;;;;;;5030910;28;20219;-76
2022/07/12 02:30:10;;;;;;;0.37;0.37;;;12.90;99.90;;;;;;5030702;28;20264;-76
2022/07/12 02:32:36;;;;;;;0.50;0.50;;;12.90;99.90;;;;;;5031029;28;20203;-76
2022/07/12 02:35:06;;;;;;;0.40;0.40;;;12.90;99.90;;;;;;5031368;28;20195;-76
2022/07/12 02:37:32;;;;;;;0.40;0.40;;;12.90;99.90;;;;;;5030781;28;20191;-75
2022/07/12 02:40:58;;;;;;;0.40;0.40;;;12.90;99.90;;;;;;5030655;28;20258;-76
2022/07/12 02:42:52;;;;;;;0.40;0.40;;;12.80;99.90;;;;;;5015497;28;20207;-76
2022/07/12 02:45:18;;;;;;;0.50;0.50;;;12.80;99.90;;;;;;5034533;28;20172;-75
2022/07/12 02:47:43;;;;;;;0.30;0.30;;;12.80;99.90;;;;;;5034444;28;20695;-75
2022/07/12 02:50:09;;;;;;;0.47;0.47;;;12.80;99.90;;;;;;5033911;28;20194;-75
2022/07/12 02:52:34;;;;;;;0.37;0.37;;;12.70;99.90;;;;;;5034388;28;20195;-75
2022/07/12 02:55:00;;;;;;;0.40;0.40;;;12.70;99.90;;;;;;5034606;28;20203;-75
2022/07/12 02:57:25;;;;;;;0.40;0.40;;;12.80;99.90;;;;;;5034285;28;20179;-75
2022/07/12 02:59:51;;;;;;;0.40;0.40;;;12.80;99.90;;;;;;5033779;28;20179;-74
2022/07/12 03:02:16;;;;;;;0.40;0.40;;;12.70;99.90;;;;;;5034316;28;20199;-74
2022/07/12 03:04:42;;;;;;;0.40;0.40;;;12.60;99.90;;;;;;5034281;28;20477;-74
2022/07/12 03:07:07;;;;;;;0.50;0.50;;;12.50;99.90;;;;;;5052122;22;20247;-82
2022/07/12 03:09:33;;;;;;;0.50;0.50;;;12.50;99.90;;;;;;5038738;28;20176;-85
2022/07/12 03:11:58;;;;;;;0.40;0.40;;;12.40;99.90;;;;;;5039546;28;20206;-81
2022/07/12 03:14:24;;;;;;;0.50;0.50;;;12.30;99.90;;;;;;5041134;28;20178;-83
2022/07/12 03:16:49;;;;;;;0.50;0.50;;;12.20;99.90;;;;;;5039774;28;20180;-82
2022/07/12 03:19:15;;;;;;;0.50;0.50;;;12.20;99.90;;;;;;5037644;28;20180;-82
2022/07/12 03:21:41;;;;;;;0.50;0.50;;;12.20;99.90;;;;;;5037972;28;20176;-81
2022/07/12 03:24:06;;;;;;;0.40;0.40;;;12.30;99.90;;;;;;5037680;28;20171;-78
2022/07/12 03:26:32;;;;;;;0.57;0.57;;;12.40;99.90;;;;;;5037841;28;20207;-78
2022/07/12 03:29:00;;;;;;;0.50;0.50;;;12.40;99.90;;;;;;5036796;28;20172;-80
2022/07/12 03:31:26;;;;;;;0.50;0.50;;;12.40;99.90;;;;;;5037098;28;20180;-78
2022/07/12 03:33:52;;;;;;;0.50;0.50;;;12.40;99.90;;;;;;5037857;28;20179;-81
2022/07/12 03:36:17;;;;;;;0.57;0.57;;;12.40;99.90;;;;;;5038149;28;20645;-80
2022/07/12 03:38:43;;;;;;;0.50;0.50;;;12.40;99.90;;;;;;5036854;28;20175;-79
2022/07/12 03:41:09;;;;;;;0.53;0.53;;;12.40;99.90;;;;;;5036326;28;20185;-78
2022/07/12 03:43:34;;;;;;;0.40;0.40;;;12.40;99.90;;;;;;5036004;28;20610;-79
2022/07/12 03:46:00;;;;;;;0.50;0.50;;;12.40;99.90;;;;;;5036408;28;20179;-78
2022/07/12 03:48:25;;;;;;;0.57;0.57;;;12.40;99.90;;;;;;5040321;28;20196;-79
2022/07/12 03:50:51;;;;;;;0.50;0.50;;;12.50;99.90;;;;;;5048792;28;20247;-82
2022/07/12 03:53:16;;;;;;;0.50;0.50;;;12.60;99.90;;;;;;5038753;28;20241;-81
2022/07/12 03:55:42;;;;;;;0.40;0.40;;;12.60;99.90;;;;;;5038875;28;20322;-81
2022/07/12 03:58:07;;;;;;;0.43;0.43;;;12.60;99.90;;;;;;5038659;28;20238;-83
2022/07/12 04:00:33;;;;;;;0.43;0.43;;;12.60;99.90;;;;;;5039330;28;20187;-82
2022/07/12 04:02:58;;;;;;;0.50;0.50;;;12.70;99.90;;;;;;5030023;28;20193;-82
2022/07/12 04:05:26;;;;;;;0.40;0.40;;;12.70;99.90;;;;;;5019850;28;20523;-82
2022/07/12 04:07:55;;;;;;;0.50;0.50;;;12.70;99.90;;;;;;5045424;28;20219;-83
2022/07/12 04:10:21;;;;;;;0.30;0.30;;;12.80;99.90;;;;;;5050836;28;20178;-81
2022/07/12 04:12:47;;;;;;;0.50;0.50;;;12.80;99.90;;;;;;5048802;28;20194;-83
2022/07/12 04:15:12;;;;;;;0.40;0.40;;;12.80;99.90;;;;;;5039051;28;20263;-82
2022/07/12 04:17:38;;;;;;;0.40;0.40;;;12.80;99.90;;;;;;5047730;28;20248;-83
2022/07/12 04:20:06;;;;;;;0.50;0.50;;;12.80;99.90;;;;;;5058587;28;20171;-81
2022/07/12 04:22:31;;;;;;;0.60;0.60;;;12.90;99.90;;;;;;5048175;28;20623;-82
2022/07/12 04:24:57;;;;;;;0.47;0.47;;;12.90;99.90;;;;;;5038162;28;20180;-80
2022/07/12 04:27:23;;;;;;;0.50;0.50;;;12.90;99.90;;;;;;5038525;28;20718;-82
2022/07/12 04:29:48;;;;;;;0.40;0.40;;;12.90;99.90;;;;;;5040525;28;20220;-82
2022/07/12 04:32:14;;;;;;;0.40;0.40;;;13.00;99.90;;;;;;5049190;28;20199;-84
2022/07/12 04:34:39;;;;;;;0.50;0.50;;;13.10;99.90;;;;;;5058365;28;20553;-81
2022/07/12 04:37:05;;;;;;;0.33;0.33;;;13.10;99.90;;;;;;5058951;28;20194;-83
2022/07/12 04:39:30;;;;;;;0.40;0.40;;;13.20;99.90;;;;;;5058584;28;20182;-84
2022/07/12 04:41:56;;;;;;;0.50;0.50;;;13.20;99.90;;;;;;5058622;28;20214;-82
2022/07/12 04:44:21;;;;;;;0.40;0.40;;;13.20;99.90;;;;;;5058116;28;20179;-82
2022/07/12 04:46:47;;;;;;;0.40;0.40;;;13.20;99.90;;;;;;5058995;28;20672;-84
2022/07/12 04:49:13;;;;;;;0.40;0.40;;;13.30;99.90;;;;;;5057957;28;20183;-83
2022/07/12 04:51:38;;;;;;;0.40;0.40;;;13.40;99.90;;;;;;5058540;28;20258;-82
2022/07/12 04:54:04;;;;;;;0.40;0.40;;;13.50;99.90;;;;;;5051192;28;20222;-81
2022/07/12 04:56:30;;;;;;;0.40;0.40;;;13.70;99.90;;;;;;5054844;28;20198;-87
2022/07/12 04:58:55;;;;;;;0.60;0.60;;;14.00;97.20;;;;;;5058647;28;20177;-82
2022/07/12 05:06:27;;;;;;;0.50;0.50;;;14.90;1.00;;;;;;5189414;22;20770;-86
2022/07/12 05:08:52;;;;;;;0.37;0.37;;;15.20;1.00;;;;;;5039746;28;20176;-87
2022/07/12 05:11:18;;;;;;;0.40;0.40;;;15.60;1.00;;;;;;5040788;28;20209;-81
2022/07/12 05:13:44;;;;;;;0.40;0.40;;;15.90;1.00;;;;;;5043226;28;20204;-81
2022/07/12 05:16:09;;;;;;;0.50;0.50;;;16.20;1.00;;;;;;5041771;28;20679;-83
2022/07/12 05:18:35;;;;;;;0.30;0.30;;;16.40;1.00;;;;;;5075599;22;20258;-77
2022/07/12 05:21:02;;;;;;;0.40;0.40;;;16.40;1.00;;;;;;5031306;28;20595;-75
2022/07/12 05:23:28;;;;;;;0.40;0.40;;;16.10;1.00;;;;;;5032490;28;20227;-76
2022/07/12 05:25:54;;;;;;;0.30;0.30;;;15.90;1.00;;;;;;5033137;28;20617;-75
2022/07/12 05:28:19;;;;;;;0.47;0.47;;;15.90;1.00;;;;;;5031483;28;20661;-74
2022/07/12 05:30:45;;;;;;;0.40;0.40;;;15.80;1.00;;;;;;5031258;28;20180;-74
2022/07/12 05:33:12;;;;;;;0.30;0.30;;;15.80;1.00;;;;;;5031177;28;20196;-74
2022/07/12 05:35:38;;;;;;;0.30;0.30;;;15.80;1.00;;;;;;5031668;28;20188;-73
2022/07/12 05:38:03;;;;;;;0.40;0.40;;;15.80;1.00;;;;;;5031585;28;20183;-73
2022/07/12 05:40:29;;;;;;;0.30;0.30;;;15.70;1.00;;;;;;5031005;28;20768;-73
2022/07/12 05:42:54;;;;;;;0.33;0.33;;;15.60;1.00;;;;;;5031284;28;20195;-73
2022/07/12 05:45:22;;;;;;;0.40;0.40;;;15.70;1.00;;;;;;5031679;28;20234;-73
2022/07/12 05:47:48;;;;;;;0.50;0.50;;;15.70;1.00;;;;;;5031239;28;20215;-72
2022/07/12 05:50:13;;;;;;;0.37;0.37;;;15.80;1.00;;;;;;5029246;28;20234;-72
2022/07/12 05:55:23;;;;;;;0.40;0.40;;;16.00;1.00;;;;;;5028419;28;20179;-72
2022/07/12 05:57:48;;;;;;;0.30;0.30;;;16.20;1.00;;;;;;5030852;28;20179;-72
2022/07/12 06:00:15;;;;;;;0.40;0.40;;;16.30;1.00;;;;;;5030325;28;20593;-73
2022/07/12 06:02:40;;;;;;;0.30;0.30;;;16.30;1.00;;;;;;5030632;28;20242;-73
2022/07/12 06:05:06;;;;;;;0.40;0.40;;;16.40;1.00;;;;;;5030661;28;20676;-72
2022/07/12 06:07:32;;;;;;;0.30;0.30;;;16.50;1.00;;;;;;5030580;28;20242;-72
2022/07/12 06:09:58;;;;;;;0.40;0.40;;;16.60;1.00;;;;;;5030368;28;20187;-72
2022/07/12 06:12:23;;;;;;;0.40;0.40;;;16.60;1.00;;;;;;5030760;28;20657;-72
2022/07/12 06:14:49;;;;;;;0.40;0.40;;;16.60;1.00;;;;;;5030774;28;20176;-72
2022/07/12 06:17:14;;;;;;;0.30;0.30;;;16.60;1.00;;;;;;5033544;28;20172;-72
2022/07/12 06:19:40;;;;;;;0.30;0.30;;;16.60;1.00;;;;;;5033970;28;20187;-72
2022/07/12 06:22:05;;;;;;;0.37;0.37;;;16.70;1.00;;;;;;5034235;28;20203;-72
2022/07/12 06:24:31;;;;;;;0.40;0.40;;;16.70;1.00;;;;;;5034799;28;20168;-72
2022/07/12 06:26:56;;;;;;;0.30;0.30;;;16.80;1.00;;;;;;5034830;28;20250;-72
2022/07/12 06:29:22;;;;;;;0.30;0.30;;;16.90;1.00;;;;;;5033920;28;20171;-73
2022/07/12 06:31:47;;;;;;;0.30;0.30;;;17.10;1.00;;;;;;5034373;28;20195;-73
2022/07/12 06:34:13;;;;;;;0.30;0.30;;;17.30;1.00;;;;;;5032572;28;20214;-73
2022/07/12 06:36:38;;;;;;;0.33;0.33;;;17.50;1.00;;;;;;5034486;28;20187;-73
2022/07/12 06:39:04;;;;;;;0.30;0.30;;;17.60;1.00;;;;;;5034333;28;20179;-73
2022/07/12 06:41:29;;;;;;;0.47;0.47;;;17.60;1.00;;;;;;5034783;28;20668;-73
2022/07/12 06:43:55;;;;;;;0.30;0.30;;;17.60;1.00;;;;;;5034401;28;20171;-72
2022/07/12 06:46:21;;;;;;;0.30;0.30;;;17.70;1.00;;;;;;5034683;28;20171;-73
2022/07/12 06:48:46;;;;;;;0.27;0.27;;;17.70;1.00;;;;;;5034407;28;20648;-73
2022/07/12 06:51:12;;;;;;;0.33;0.33;;;17.80;1.00;;;;;;5033463;28;20164;-73
2022/07/12 06:53:37;;;;;;;0.40;0.40;;;18.10;1.00;;;;;;5034367;28;20204;-75
2022/07/12 06:56:03;;;;;;;0.30;0.30;;;18.20;1.00;;;;;;5034278;28;20183;-75
2022/07/12 06:58:29;;;;;;;0.33;0.33;;;18.20;99.90;;;;;;5034509;28;20172;-72
2022/07/12 07:00:54;;;;;;;0.40;0.40;;;18.40;99.90;;;;;;5033885;28;20176;-73
2022/07/12 07:03:20;;;;;;;0.30;0.30;;;18.50;20.20;;;;;;5033685;28;20588;-73
2022/07/12 07:05:45;;;;;;;0.30;0.30;;;18.70;1.00;;;;;;5033625;28;20172;-73
2022/07/12 07:08:11;;;;;;;0.40;0.40;;;18.80;1.00;;;;;;5034048;28;20223;-73
2022/07/12 07:10:36;;;;;;;0.30;0.30;;;18.80;99.90;;;;;;5034019;28;20172;-73
2022/07/12 07:13:02;;;;;;;0.30;0.30;;;18.90;15.50;;;;;;5034164;28;20270;-73
2022/07/12 07:15:27;;;;;;;0.30;0.30;;;19.00;1.00;;;;;;5033798;28;20178;-73
2022/07/12 07:17:53;;;;;;;0.30;0.30;;;19.10;1.00;;;;;;5032926;28;20194;-73
2022/07/12 07:20:19;;;;;;;0.30;0.30;;;19.10;1.00;;;;;;5032773;28;20656;-73
2022/07/12 07:22:44;;;;;;;0.30;0.30;;;19.20;99.90;;;;;;5033688;28;20188;-75
2022/07/12 07:25:10;;;;;;;0.30;0.30;;;19.30;1.00;;;;;;5033075;28;20168;-75
2022/07/12 07:27:35;;;;;;;0.30;0.30;;;19.60;1.00;;;;;;5033090;28;20215;-75
2022/07/12 07:32:45;;;;;;;0.33;0.33;;;20.00;1.00;;;;;;5033791;28;20624;-76
2022/07/12 07:35:11;;;;;;;0.40;0.40;;;20.20;1.00;;;;;;5034089;28;20176;-76
2022/07/12 07:37:36;;;;;;;0.30;0.30;;;20.30;99.90;;;;;;5034246;28;20487;-76
2022/07/12 07:40:03;;;;;;;0.40;0.40;;;20.40;99.90;;;;;;5033296;28;20199;-75
2022/07/12 07:42:28;;;;;;;0.30;0.30;;;20.40;99.90;;;;;;5033455;28;20208;-75
2022/07/12 07:44:54;;;;;;;0.30;0.30;;;20.60;99.90;;;;;;5033486;28;20550;-75
2022/07/12 07:47:19;;;;;;;0.30;0.30;;;21.00;99.90;;;;;;5033486;28;20816;-75
2022/07/12 07:49:45;;;;;;;0.30;0.30;;;21.50;1.00;;;;;;5033579;28;20176;-76
2022/07/12 07:52:10;;;;;;;0.20;0.20;;;22.10;1.00;;;;;;5033630;28;20196;-75
2022/07/12 07:54:36;;;;;;;0.20;0.20;;;22.40;1.00;;;;;;5033421;28;20191;-76
2022/07/12 07:57:01;;;;;;;0.30;0.30;;;22.40;1.00;;;;;;5033206;28;20172;-75
2022/07/12 07:59:27;;;;;;;0.30;0.30;;;22.70;1.00;;;;;;5032890;28;20259;-76
2022/07/12 08:01:52;;;;;;;0.33;0.33;;;23.10;1.00;;;;;;5033188;28;20256;-76
2022/07/12 08:04:19;;;;;;;0.30;0.30;;;23.60;1.00;;;;;;5033590;28;20191;-76
2022/07/12 08:06:46;;;;;;;0.40;0.40;;;24.30;1.00;;;;;;5033366;28;20303;-76
2022/07/12 08:09:12;;;;;;;0.30;0.30;;;24.80;1.00;;;;;;5032713;28;20586;-76
2022/07/12 08:11:38;;;;;;;0.40;0.40;;;25.10;1.00;;;;;;5033472;28;20655;-76
2022/07/12 08:14:04;;;;;;;0.43;0.43;;;25.30;1.00;;;;;;5032946;28;20237;-76
2022/07/12 08:16:31;;;;;;;0.30;0.30;;;25.40;1.00;;;;;;5033182;28;20258;-76
2022/07/12 08:18:57;;;;;;;0.30;0.30;;;25.70;1.00;;;;;;5032163;28;20192;-76
2022/07/12 08:21:23;;;;;;;0.33;0.33;;;26.00;1.00;;;;;;5032295;28;20616;-76
2022/07/12 08:23:49;;;;;;;0.30;0.30;;;26.20;1.00;;;;;;5032419;28;20200;-76
2022/07/12 08:26:15;;;;;;;0.30;0.30;;;26.50;1.00;;;;;;5032318;28;20644;-76
2022/07/12 08:28:41;;;;;;;0.50;0.50;;;26.80;1.00;;;;;;5032326;28;20179;-76
2022/07/12 08:31:07;;;;;;;0.40;0.40;;;27.10;1.00;;;;;;5032356;28;20207;-75
2022/07/12 08:33:33;;;;;;;0.40;0.40;;;27.30;1.00;;;;;;5032821;28;20192;-75
2022/07/12 08:35:59;;;;;;;0.30;0.30;;;27.50;1.00;;;;;;5032807;28;20553;-73
2022/07/12 08:38:24;;;;;;;0.37;0.37;;;28.00;1.00;;;;;;5032157;28;20179;-75
2022/07/12 08:40:50;;;;;;;0.37;0.37;;;28.10;1.00;;;;;;5030975;28;20175;-75
2022/07/12 08:43:15;;;;;;;0.40;0.40;;;28.30;1.00;;;;;;5031684;28;20200;-73
2022/07/12 08:45:41;;;;;;;0.50;0.50;;;28.50;1.00;;;;;;5032416;28;20271;-75
2022/07/12 08:48:07;;;;;;;0.50;0.50;;;28.80;1.00;;;;;;5032185;28;20216;-74
2022/07/12 08:50:33;;;;;;;0.40;0.40;;;29.00;1.00;;;;;;5031644;28;20263;-75
2022/07/12 08:52:59;;;;;;;0.40;0.40;;;28.70;1.00;;;;;;5031591;28;20287;-75
2022/07/12 08:55:32;;;;;;;0.47;0.47;;;28.40;1.00;;;;;;5032228;28;20641;-75
2022/07/12 08:58:00;;;;;;;0.30;0.30;;;28.00;1.00;;;;;;5032353;28;20190;-75
2022/07/12 09:00:27;;;;;;;0.47;0.47;;;28.00;1.00;;;;;;5030769;28;20176;-73
2022/07/12 09:02:55;;;;;;;0.40;0.40;;;28.30;1.00;;;;;;5031556;28;20199;-74
2022/07/12 09:05:24;;;;;;;0.50;0.50;;;28.50;1.00;;;;;;5031766;28;20168;-74
2022/07/12 09:07:50;;;;;;;0.47;0.47;;;28.90;1.00;;;;;;5031498;28;20273;-74
2022/07/12 09:10:17;;;;;;;0.50;0.50;;;28.90;1.00;;;;;;5031084;28;20179;-73
2022/07/12 09:12:44;;;;;;;0.50;0.50;;;28.90;1.00;;;;;;5031166;28;20202;-74
2022/07/12 09:15:20;;;;;;;0.43;0.43;;;29.00;1.00;;;;;;5031509;28;20172;-74
2022/07/12 09:18:13;;;;;;;0.60;0.60;;;29.20;1.00;;;;;;5031410;28;20195;-74
2022/07/12 09:20:39;;;;;;;0.50;0.50;;;28.90;1.00;;;;;;5029473;28;20183;-74
2022/07/12 09:23:08;;;;;;;0.50;0.50;;;28.90;1.00;;;;;;5030981;28;20199;-74
2022/07/12 09:25:34;;;;;;;0.30;0.30;;;29.00;1.00;;;;;;5031341;28;20203;-74
2022/07/12 09:28:03;;;;;;;0.30;0.30;;;28.50;1.00;;;;;;5031377;28;20241;-74
2022/07/12 09:30:29;;;;;;;0.40;0.40;;;27.60;1.00;;;;;;5031092;28;20179;-73
2022/07/12 09:36:13;;;;;;;0.40;0.40;;;26.40;1.00;;;;;;5029350;28;20260;-74
2022/07/12 09:39:01;;;;;;;0.40;0.40;;;26.00;1.00;;;;;;5030481;28;20187;-74
2022/07/12 09:41:27;;;;;;;0.40;0.40;;;26.80;1.00;;;;;;5030935;28;20191;-73
2022/07/12 09:43:53;;;;;;;0.40;0.40;;;27.30;1.00;;;;;;5031028;28;20176;-73
2022/07/12 09:46:19;;;;;;;0.40;0.40;;;27.30;1.00;;;;;;5030861;28;20190;-74
2022/07/12 09:48:46;;;;;;;0.43;0.43;;;27.30;1.00;;;;;;5029610;28;20214;-73
2022/07/12 09:51:17;;;;;;;0.40;0.40;;;26.90;1.00;;;;;;5033069;28;20175;-74
2022/07/12 09:53:47;;;;;;;0.60;0.60;;;27.30;1.00;;;;;;5037635;28;20256;-75
2022/07/12 09:56:15;;;;;;;0.37;0.37;;;27.90;1.00;;;;;;5035795;28;20171;-75
2022/07/12 09:58:55;;;;;;;0.43;0.43;;;28.30;1.00;;;;;;5037220;28;20389;-75
2022/07/12 10:01:21;;;;;;;0.40;0.40;;;28.60;1.00;;;;;;5038034;28;20183;-74
2022/07/12 10:03:48;;;;;;;0.47;0.47;;;29.00;1.00;;;;;;5038178;28;20202;-74
2022/07/12 10:06:27;;;;;;;0.50;0.50;;;29.50;1.00;;;;;;5038038;28;20245;-74
2022/07/12 10:08:54;;;;;;;0.60;0.60;;;29.70;1.00;;;;;;5037679;28;20180;-76
2022/07/12 10:11:21;;;;;;;0.50;0.50;;;29.10;1.00;;;;;;5037804;28;20547;-74
2022/07/12 10:13:47;;;;;;;0.50;0.50;;;28.50;1.00;;;;;;5038024;28;20325;-75
2022/07/12 10:16:15;;;;;;;0.30;0.30;;;28.30;1.00;;;;;;5038391;28;20217;-75
2022/07/12 10:18:40;;;;;;;0.37;0.37;;;28.30;1.00;;;;;;5038330;28;20576;-75
2022/07/12 10:21:22;;;;;;;0.30;0.30;;;28.70;1.00;;;;;;5038023;28;20176;-75
2022/07/12 10:23:47;;;;;;;0.40;0.40;;;29.00;1.00;;;;;;5038053;28;20199;-75
2022/07/12 10:26:19;;;;;;;0.40;0.40;;;29.30;1.00;;;;;;5037948;28;20317;-75
2022/07/12 10:29:09;;;;;;;0.30;0.30;;;29.30;1.00;;;;;;5037779;28;20184;-75
2022/07/12 10:31:38;;;;;;;0.40;0.40;;;29.50;1.00;;;;;;5037835;28;20176;-75
2022/07/12 10:34:23;;;;;;;0.40;0.40;;;29.80;1.00;;;;;;5037631;28;20409;-75
2022/07/12 10:36:55;;;;;;;0.40;0.40;;;29.70;1.00;;;;;;5037927;28;20188;-73
2022/07/12 10:39:26;;;;;;;0.40;0.40;;;28.40;1.00;;;;;;5037097;28;20229;-74
2022/07/12 10:42:15;;;;;;;0.43;0.43;;;28.10;1.00;;;;;;5037670;28;20192;-74
2022/07/12 10:44:44;;;;;;;0.30;0.30;;;28.40;1.00;;;;;;5037512;28;20176;-74
2022/07/12 10:47:12;;;;;;;0.33;0.33;;;28.80;1.00;;;;;;5037507;28;20278;-74
2022/07/12 10:49:48;;;;;;;0.30;0.30;;;29.00;1.00;;;;;;5037055;28;20676;-73
2022/07/12 10:52:21;;;;;;;0.40;0.40;;;28.60;1.00;;;;;;5037176;28;20206;-74
2022/07/12 10:55:16;;;;;;;0.47;0.47;;;28.90;1.00;;;;;;5037467;28;20179;-74
2022/07/12 10:57:49;;;;;;;0.40;0.40;;;29.30;1.00;;;;;;5037671;28;20217;-74
2022/07/12 11:00:15;;;;;;;0.40;0.40;;;29.80;1.00;;;;;;5034016;28;20233;-74
2022/07/12 11:02:41;;;;;;;0.40;0.40;;;30.00;1.00;;;;;;5052511;28;20551;-75
2022/07/12 11:05:08;;;;;;;0.40;0.40;;;30.00;1.00;;;;;;5031287;28;20191;-75
2022/07/12 11:07:34;;;;;;;0.40;0.40;;;30.00;1.00;;;;;;5031620;28;20265;-76
2022/07/12 11:09:59;;;;;;;0.40;0.40;;;30.20;1.00;;;;;;5030323;28;20270;-74
2022/07/12 11:12:32;;;;;;;0.40;0.40;;;30.30;1.00;;;;;;5031408;28;20211;-74
2022/07/12 11:15:02;;;;;;;0.50;0.50;;;30.20;1.00;;;;;;5030580;28;20184;-74
2022/07/12 11:17:32;;;;;;;0.37;0.37;;;30.10;1.00;;;;;;5031447;28;20184;-75
2022/07/12 11:20:09;;;;;;;0.50;0.50;;;29.90;1.00;;;;;;5035350;28;20206;-74
2022/07/12 11:22:36;;;;;;;0.43;0.43;;;29.80;1.00;;;;;;5051524;28;20206;-74
2022/07/12 11:25:03;;;;;;;0.53;0.53;;;29.80;1.00;;;;;;5050147;28;20258;-71
2022/07/12 11:27:29;;;;;;;0.30;0.30;;;29.30;1.00;;;;;;5051112;28;20293;-72
2022/07/12 11:30:03;;;;;;;0.40;0.40;;;28.70;1.00;;;;;;5049595;28;20309;-74
2022/07/12 11:32:40;;;;;;;0.33;0.33;;;28.30;1.00;;;;;;5045847;28;20200;-73
2022/07/12 11:35:22;;;;;;;0.50;0.50;;;28.30;1.00;;;;;;5039534;28;20206;-73
2022/07/12 11:37:55;;;;;;;0.30;0.30;;;28.80;1.00;;;;;;5031027;28;20176;-73
2022/07/12 11:40:29;;;;;;;0.50;0.50;;;29.40;1.00;;;;;;5024031;28;20196;-73
2022/07/12 11:42:59;;;;;;;0.50;0.50;;;29.80;1.00;;;;;;5038538;28;20307;-73
2022/07/12 11:45:30;;;;;;;0.40;0.40;;;30.30;1.00;;;;;;5050622;28;20183;-73
2022/07/12 11:48:02;;;;;;;0.60;0.60;;;30.40;1.00;;;;;;5032630;28;20302;-73
2022/07/12 11:50:29;;;;;;;0.50;0.50;;;30.10;1.00;;;;;;5043559;28;20226;-74
2022/07/12 11:52:55;;;;;;;0.40;0.40;;;30.10;1.00;;;;;;5049613;28;20233;-74
2022/07/12 11:55:21;;;;;;;0.50;0.50;;;30.20;1.00;;;;;;5050519;28;20179;-74
2022/07/12 11:57:47;;;;;;;0.40;0.40;;;30.40;1.00;;;;;;5045190;28;20594;-75
2022/07/12 12:00:14;;;;;;;0.50;0.50;;;30.60;1.00;;;;;;5031934;28;20736;-75
2022/07/12 12:02:39;;;;;;;0.50;0.50;;;30.80;1.00;;;;;;5030891;28;20204;-74
2022/07/12 12:05:05;;;;;;;0.40;0.40;;;31.00;1.00;;;;;;5031961;28;20184;-74
2022/07/12 12:07:32;;;;;;;0.67;0.67;;;30.90;1.00;;;;;;5024506;28;20207;-74
2022/07/12 12:10:14;;;;;;;0.43;0.43;;;30.80;1.00;;;;;;5042766;28;20207;-74
2022/07/12 12:12:54;;;;;;;0.60;0.60;;;30.80;1.00;;;;;;5047284;28;20206;-72
2022/07/12 12:15:22;;;;;;;0.50;0.50;;;30.80;1.00;;;;;;5036814;28;20183;-72
2022/07/12 12:17:58;;;;;;;0.57;0.57;;;30.80;1.00;;;;;;5032996;28;20211;-72
2022/07/12 12:20:25;;;;;;;0.60;0.60;;;30.40;1.00;;;;;;5040318;28;20541;-72
2022/07/12 12:22:59;;;;;;;0.40;0.40;;;29.90;1.00;;;;;;5052162;28;20227;-72
2022/07/12 12:25:25;;;;;;;0.50;0.50;;;29.50;1.00;;;;;;5052669;28;20556;-71
2022/07/12 12:27:55;;;;;;;0.40;0.40;;;29.40;1.00;;;;;;5052765;28;20215;-72
2022/07/12 12:30:22;;;;;;;0.40;0.40;;;29.90;1.00;;;;;;5051951;28;20214;-72
2022/07/12 12:32:49;;;;;;;0.50;0.50;;;30.30;1.00;;;;;;5052389;28;20203;-72
2022/07/12 12:35:17;;;;;;;0.50;0.50;;;30.40;1.00;;;;;;5048109;28;20542;-71
2022/07/12 12:37:54;;;;;;;0.40;0.40;;;30.60;1.00;;;;;;5037972;28;20217;-72
2022/07/12 12:40:21;;;;;;;0.50;0.50;;;30.70;1.00;;;;;;5047245;28;20175;-72
2022/07/12 12:42:47;;;;;;;0.50;0.50;;;30.50;1.00;;;;;;5030736;28;20262;-72
2022/07/12 12:45:24;;;;;;;0.50;0.50;;;30.40;1.00;;;;;;5044014;28;20262;-72
2022/07/12 12:47:54;;;;;;;0.60;0.60;;;30.60;1.00;;;;;;5052483;28;20276;-72
2022/07/12 12:50:43;;;;;;;0.40;0.40;;;30.60;1.00;;;;;;5046705;28;20180;-73
2022/07/12 12:53:11;;;;;;;0.50;0.50;;;30.50;1.00;;;;;;5037059;28;20655;-71
2022/07/12 12:55:37;;;;;;;0.40;0.40;;;30.40;1.00;;;;;;5052286;28;20671;-73
2022/07/12 12:58:03;;;;;;;0.37;0.37;;;30.30;1.00;;;;;;5052399;28;20175;-73
2022/07/12 13:00:30;;;;;;;0.50;0.50;;;30.30;1.00;;;;;;5051469;28;20652;-73
2022/07/12 13:02:59;;;;;;;0.50;0.50;;;30.40;1.00;;;;;;5052052;28;20198;-73
2022/07/12 13:05:25;;;;;;;0.50;0.50;;;30.50;1.00;;;;;;5052044;28;20179;-75
2022/07/12 13:07:51;;;;;;;0.40;0.40;;;30.40;1.00;;;;;;5043229;28;20245;-75